createdAt,value
2023-04-07T00:02:28.569Z,6.90
2023-04-07T00:04:57.454Z,6.90
2023-04-07T00:07:25.409Z,6.90
2023-04-07T00:09:53.118Z,6.90
2023-04-07T00:12:21.148Z,6.90
2023-04-07T00:14:50.181Z,6.90
2023-04-07T00:17:17.895Z,7.00
2023-04-07T00:19:45.702Z,7.00
2023-04-07T00:22:13.383Z,7.00
2023-04-07T00:24:41.108Z,7.00
2023-04-07T00:27:08.795Z,6.90
2023-04-07T00:29:36.507Z,7.00
2023-04-07T00:32:05.757Z,7.00
2023-04-07T00:34:33.464Z,7.00
2023-04-07T00:37:01.237Z,7.00
2023-04-07T00:39:29.004Z,7.00
2023-04-07T00:41:56.768Z,7.00
2023-04-07T00:44:24.624Z,7.00
2023-04-07T00:46:52.478Z,7.00
2023-04-07T00:49:21.602Z,7.00
2023-04-07T00:51:49.363Z,7.00
2023-04-07T00:54:17.357Z,7.00
2023-04-07T00:59:23.058Z,7.00
2023-04-07T01:01:59.690Z,7.00
2023-04-07T01:04:34.504Z,7.00
2023-04-07T01:07:06.517Z,7.00
2023-04-07T01:09:41.709Z,7.00
2023-04-07T01:12:16.307Z,7.00
2023-04-07T01:14:54.783Z,7.00
2023-04-07T01:17:26.951Z,7.00
2023-04-07T01:20:00.214Z,7.00
2023-04-07T01:22:33.800Z,7.00
2023-04-07T01:25:32.558Z,7.00
2023-04-07T01:28:14.974Z,7.10
2023-04-07T01:30:45.111Z,7.10
2023-04-07T01:33:15.306Z,7.10
2023-04-07T01:35:44.176Z,7.10
2023-04-07T01:38:12.884Z,7.10
2023-04-07T01:40:41.450Z,7.10
2023-04-07T01:43:10.282Z,7.10
2023-04-07T01:45:45.876Z,7.10
2023-04-07T01:48:16.121Z,7.10
2023-04-07T01:50:45.126Z,7.10
2023-04-07T01:53:13.332Z,7.10
2023-04-07T01:55:41.240Z,7.10
2023-04-07T01:58:09.399Z,7.10
2023-04-07T02:00:37.447Z,7.10
2023-04-07T02:03:10.473Z,7.10
2023-04-07T02:05:40.736Z,7.10
2023-04-07T02:08:12.437Z,7.10
2023-04-07T02:10:40.483Z,7.10
2023-04-07T02:13:11.337Z,7.10
2023-04-07T02:15:40.093Z,7.10
2023-04-07T02:18:12.733Z,7.10
2023-04-07T02:20:43.577Z,7.20
2023-04-07T02:23:11.646Z,7.20
2023-04-07T02:25:39.458Z,7.20
2023-04-07T02:28:07.496Z,7.20
2023-04-07T02:30:36.325Z,7.20
2023-04-07T02:33:04.256Z,7.20
2023-04-07T02:35:32.029Z,7.20
2023-04-07T02:38:01.396Z,7.20
2023-04-07T02:40:29.347Z,7.20
2023-04-07T02:42:57.199Z,7.20
2023-04-07T02:45:25.188Z,7.20
2023-04-07T02:47:53.017Z,7.20
2023-04-07T02:50:21.170Z,7.20
2023-04-07T02:52:49.051Z,7.20
2023-04-07T02:55:18.892Z,7.20
2023-04-07T02:57:46.813Z,7.20
2023-04-07T03:00:16.602Z,7.20
2023-04-07T03:02:44.507Z,7.20
2023-04-07T03:05:12.587Z,7.30
2023-04-07T03:07:40.372Z,7.30
2023-04-07T03:10:08.884Z,7.20
2023-04-07T03:12:38.044Z,7.20
2023-04-07T03:15:06.494Z,7.20
2023-04-07T03:17:34.809Z,7.20
2023-04-07T03:20:02.745Z,7.30
2023-04-07T03:22:30.542Z,7.30
2023-04-07T03:24:58.311Z,7.30
2023-04-07T03:27:26.226Z,7.30
2023-04-07T03:29:56.114Z,7.20
2023-04-07T03:32:24.090Z,7.30
2023-04-07T03:34:51.913Z,7.30
2023-04-07T03:37:19.679Z,7.30
2023-04-07T03:39:47.471Z,7.30
2023-04-07T03:42:15.400Z,7.30
2023-04-07T03:44:43.195Z,7.30
2023-04-07T03:47:12.786Z,7.30
2023-04-07T03:49:40.882Z,7.30
2023-04-07T03:52:08.748Z,7.30
2023-04-07T03:54:36.548Z,7.30
2023-04-07T03:57:04.775Z,7.30
2023-04-07T03:59:32.873Z,7.30
2023-04-07T04:02:00.731Z,7.30
2023-04-07T04:04:29.910Z,7.30
2023-04-07T04:06:57.728Z,7.30
2023-04-07T04:09:25.780Z,7.30
2023-04-07T04:11:53.570Z,7.30
2023-04-07T04:14:21.475Z,7.30
2023-04-07T04:16:49.276Z,7.30
2023-04-07T04:19:17.396Z,7.30
2023-04-07T04:21:46.730Z,7.30
2023-04-07T04:24:14.529Z,7.30
2023-04-07T04:26:42.404Z,7.30
2023-04-07T04:29:10.201Z,7.30
2023-04-07T04:31:38.040Z,7.40
2023-04-07T04:34:05.981Z,7.40
2023-04-07T04:36:33.782Z,7.40
2023-04-07T04:39:02.981Z,7.40
2023-04-07T04:41:30.970Z,7.40
2023-04-07T04:43:58.811Z,7.40
2023-04-07T04:46:26.988Z,7.50
2023-04-07T04:48:54.846Z,7.50
2023-04-07T04:51:22.681Z,7.50
2023-04-07T04:53:50.654Z,7.50
2023-04-07T04:56:21.237Z,7.50
2023-04-07T04:58:49.066Z,7.50
2023-04-07T05:01:16.921Z,7.50
2023-04-07T05:03:45.771Z,7.50
2023-04-07T05:06:14.213Z,7.50
2023-04-07T05:08:42.189Z,7.50
2023-04-07T05:11:10.023Z,7.50
2023-04-07T05:13:39.186Z,7.50
2023-04-07T05:16:07.907Z,7.50
2023-04-07T05:18:35.789Z,7.50
2023-04-07T05:21:03.598Z,7.50
2023-04-07T05:23:31.486Z,7.60
2023-04-07T05:25:59.299Z,7.50
2023-04-07T05:28:27.105Z,7.60
2023-04-07T05:30:56.477Z,7.60
2023-04-07T05:33:24.307Z,7.60
2023-04-07T05:35:52.100Z,7.60
2023-04-07T05:38:19.909Z,7.60
2023-04-07T05:40:48.204Z,7.60
2023-04-07T05:43:16.103Z,7.60
2023-04-07T05:45:43.908Z,7.60
2023-04-07T05:48:13.100Z,7.60
2023-04-07T05:50:40.978Z,7.60
2023-04-07T05:53:09.102Z,7.60
2023-04-07T05:55:36.957Z,7.60
2023-04-07T05:58:05.214Z,7.60
2023-04-07T06:00:33.024Z,7.60
2023-04-07T06:03:01.843Z,7.60
2023-04-07T06:05:31.183Z,7.60
2023-04-07T06:07:59.017Z,7.60
2023-04-07T06:10:26.872Z,7.60
2023-04-07T06:12:54.656Z,7.60
2023-04-07T06:15:22.476Z,7.70
2023-04-07T06:17:50.285Z,7.70
2023-04-07T06:20:18.177Z,7.70
2023-04-07T06:22:47.315Z,7.70
2023-04-07T06:25:15.135Z,7.70
2023-04-07T06:27:42.999Z,7.70
2023-04-07T06:30:11.972Z,7.70
2023-04-07T06:32:39.801Z,7.70
2023-04-07T06:35:08.235Z,7.70
2023-04-07T06:37:36.420Z,7.70
2023-04-07T06:40:06.454Z,7.70
2023-04-07T06:42:34.240Z,7.70
2023-04-07T06:45:02.086Z,7.70
2023-04-07T06:47:29.930Z,7.70
2023-04-07T06:49:57.752Z,7.70
2023-04-07T06:52:25.598Z,7.70
2023-04-07T06:54:53.391Z,7.70
2023-04-07T06:57:22.741Z,7.70
2023-04-07T06:59:50.524Z,7.70
2023-04-07T07:02:18.594Z,7.70
2023-04-07T07:04:46.588Z,7.70
2023-04-07T07:07:14.390Z,7.70
2023-04-07T07:09:42.319Z,7.70
2023-04-07T07:12:10.282Z,7.70
2023-04-07T07:14:39.445Z,7.70
2023-04-07T07:17:07.242Z,7.70
2023-04-07T07:19:35.390Z,7.70
2023-04-07T07:22:04.225Z,7.80
2023-04-07T07:24:33.906Z,7.70
2023-04-07T07:27:03.360Z,7.80
2023-04-07T07:29:31.251Z,7.80
2023-04-07T07:32:00.391Z,7.70
2023-04-07T07:34:28.239Z,7.80
2023-04-07T07:36:56.024Z,7.80
2023-04-07T07:39:23.856Z,7.80
2023-04-07T07:41:51.857Z,7.80
2023-04-07T07:44:20.164Z,7.80
2023-04-07T07:46:48.036Z,7.80
2023-04-07T07:49:17.340Z,7.80
2023-04-07T07:51:46.038Z,7.80
2023-04-07T07:54:14.119Z,7.80
2023-04-07T07:56:41.894Z,7.80
2023-04-07T07:59:09.676Z,7.80
2023-04-07T08:01:37.490Z,7.80
2023-04-07T08:04:05.465Z,7.80
2023-04-07T08:06:34.730Z,7.80
2023-04-07T08:09:02.597Z,7.80
2023-04-07T08:11:30.495Z,7.80
2023-04-07T08:13:58.293Z,7.80
2023-04-07T08:16:26.872Z,7.80
2023-04-07T08:18:54.815Z,7.80
2023-04-07T08:21:22.595Z,7.80
2023-04-07T08:23:51.746Z,7.80
2023-04-07T08:26:19.530Z,7.80
2023-04-07T08:28:47.330Z,7.80
2023-04-07T08:31:15.350Z,7.80
2023-04-07T08:33:43.121Z,7.80
2023-04-07T08:36:10.938Z,7.80
2023-04-07T08:38:38.805Z,7.80
2023-04-07T08:41:12.249Z,7.90
2023-04-07T08:43:41.211Z,7.80
2023-04-07T08:46:11.316Z,7.90
2023-04-07T08:48:39.560Z,7.90
2023-04-07T08:51:10.196Z,7.90
2023-04-07T08:53:43.202Z,7.90
2023-04-07T08:56:14.355Z,7.90
2023-04-07T08:58:42.674Z,7.90
2023-04-07T09:01:11.509Z,7.90
2023-04-07T09:03:39.843Z,7.90
2023-04-07T09:06:07.891Z,7.90
2023-04-07T09:08:35.724Z,7.90
2023-04-07T09:11:03.730Z,7.90
2023-04-07T09:13:33.444Z,7.90
2023-04-07T09:16:04.549Z,7.90
2023-04-07T09:18:32.502Z,8.00
2023-04-07T09:21:02.364Z,7.90
2023-04-07T09:23:31.984Z,7.90
2023-04-07T09:26:01.803Z,7.90
2023-04-07T09:28:44.258Z,7.90
2023-04-07T09:31:12.340Z,8.00
2023-04-07T09:33:40.548Z,8.00
2023-04-07T09:36:08.680Z,8.00
2023-04-07T09:38:38.400Z,8.00
2023-04-07T09:41:11.390Z,8.00
2023-04-07T09:43:41.080Z,8.00
2023-04-07T09:46:14.931Z,8.00
2023-04-07T09:48:43.899Z,8.10
2023-04-07T09:51:13.661Z,8.10
2023-04-07T09:53:49.266Z,8.10
2023-04-07T09:56:19.367Z,8.00
2023-04-07T09:58:48.098Z,8.00
2023-04-07T10:01:18.777Z,8.10
2023-04-07T10:03:48.348Z,8.10
2023-04-07T10:06:16.472Z,8.10
2023-04-07T10:08:44.848Z,8.10
2023-04-07T10:11:12.627Z,8.20
2023-04-07T10:13:41.761Z,8.20
2023-04-07T10:16:09.703Z,8.20
2023-04-07T10:18:41.251Z,8.20
2023-04-07T10:21:10.574Z,8.20
2023-04-07T10:23:47.320Z,8.20
2023-04-07T10:26:17.956Z,8.30
2023-04-07T10:28:49.818Z,8.30
2023-04-07T10:31:18.766Z,8.40
2023-04-07T10:33:49.851Z,8.40
2023-04-07T10:36:20.216Z,8.50
2023-04-07T10:39:21.685Z,8.40
2023-04-07T10:41:51.659Z,8.50
2023-04-07T10:44:48.243Z,8.50
2023-04-07T10:47:16.223Z,8.50
2023-04-07T10:50:19.782Z,8.50
2023-04-07T10:52:48.989Z,8.50
2023-04-07T10:55:36.752Z,8.50
2023-04-07T10:58:22.026Z,8.50
2023-04-07T11:01:21.656Z,8.50
2023-04-07T11:04:01.108Z,8.60
2023-04-07T11:06:31.416Z,8.60
2023-04-07T11:08:59.231Z,8.70
2023-04-07T11:11:41.575Z,8.70
2023-04-07T11:14:09.412Z,8.70
2023-04-07T11:16:39.470Z,8.70
2023-04-07T11:19:07.333Z,8.70
2023-04-07T11:21:36.879Z,8.60
2023-04-07T11:24:05.637Z,8.60
2023-04-07T11:26:39.903Z,8.60
2023-04-07T11:29:08.263Z,8.60
2023-04-07T11:31:36.162Z,8.60
2023-04-07T11:34:06.077Z,8.60
2023-04-07T11:36:39.164Z,8.50
2023-04-07T11:39:07.191Z,8.50
2023-04-07T11:41:46.343Z,8.60
2023-04-07T11:44:15.390Z,8.60
2023-04-07T11:46:54.528Z,8.70
2023-04-07T11:49:23.531Z,8.70
2023-04-07T11:51:59.618Z,8.70
2023-04-07T11:54:27.570Z,8.70
2023-04-07T11:56:56.105Z,8.80
2023-04-07T11:59:25.180Z,8.80
2023-04-07T12:01:56.292Z,8.80
2023-04-07T12:04:26.047Z,8.80
2023-04-07T12:06:55.400Z,8.80
2023-04-07T12:09:28.673Z,8.70
2023-04-07T12:11:58.076Z,8.70
2023-04-07T12:14:26.261Z,8.70
2023-04-07T12:16:56.311Z,8.80
2023-04-07T12:19:24.502Z,8.80
2023-04-07T12:21:52.421Z,8.80
2023-04-07T12:24:22.235Z,8.80
2023-04-07T12:26:50.209Z,8.80
2023-04-07T12:29:19.998Z,8.80
2023-04-07T12:31:50.830Z,8.80
2023-04-07T12:34:19.284Z,8.80
2023-04-07T12:36:47.404Z,8.90
2023-04-07T12:39:15.965Z,8.80
2023-04-07T12:41:45.947Z,8.90
2023-04-07T12:44:13.871Z,9.00
2023-04-07T12:46:41.652Z,9.00
2023-04-07T12:49:09.685Z,9.10
2023-04-07T12:51:39.703Z,9.20
2023-04-07T12:54:07.544Z,9.20
2023-04-07T12:59:13.924Z,9.30
2023-04-07T13:01:41.764Z,9.30
2023-04-07T13:04:10.338Z,9.40
2023-04-07T13:06:38.227Z,9.40
2023-04-07T13:09:06.049Z,9.40
2023-04-07T13:11:33.840Z,9.50
2023-04-07T13:14:01.745Z,9.50
2023-04-07T13:16:31.604Z,9.50
2023-04-07T13:18:59.459Z,9.50
2023-04-07T13:21:45.558Z,9.50
2023-04-07T13:24:14.954Z,9.50
2023-04-07T13:26:42.760Z,9.50
2023-04-07T13:29:10.581Z,9.50
2023-04-07T13:31:39.894Z,9.50
2023-04-07T13:34:07.776Z,9.50
2023-04-07T13:36:35.560Z,9.50
2023-04-07T13:39:03.488Z,9.50
2023-04-07T13:41:31.662Z,9.50
2023-04-07T13:43:59.641Z,9.50
2023-04-07T13:46:28.958Z,9.60
2023-04-07T13:48:58.623Z,9.60
2023-04-07T13:51:27.958Z,9.70
2023-04-07T13:53:55.760Z,9.70
2023-04-07T13:56:23.625Z,9.70
2023-04-07T13:58:51.721Z,9.70
2023-04-07T14:01:19.587Z,9.70
2023-04-07T14:03:49.623Z,9.70
2023-04-07T14:06:22.474Z,9.70
2023-04-07T14:08:50.365Z,9.70
2023-04-07T14:11:18.659Z,9.80
2023-04-07T14:13:46.961Z,9.80
2023-04-07T14:16:14.984Z,9.80
2023-04-07T14:18:43.059Z,9.70
2023-04-07T14:21:11.144Z,9.70
2023-04-07T14:23:40.312Z,9.80
2023-04-07T14:26:11.240Z,9.80
2023-04-07T14:28:39.108Z,9.80
2023-04-07T14:31:07.320Z,9.80
2023-04-07T14:33:35.404Z,9.70
2023-04-07T14:36:03.240Z,9.70
2023-04-07T14:38:31.965Z,9.70
2023-04-07T14:43:33.758Z,9.70
2023-04-07T14:46:01.549Z,9.70
2023-04-07T14:48:29.421Z,9.80
2023-04-07T14:51:08.300Z,9.80
2023-04-07T14:53:37.340Z,9.80
2023-04-07T14:56:07.403Z,9.70
2023-04-07T14:58:37.352Z,9.70
2023-04-07T15:01:06.475Z,9.70
2023-04-07T15:03:34.843Z,9.70
2023-04-07T15:06:02.884Z,9.70
2023-04-07T15:08:30.663Z,9.70
2023-04-07T15:10:58.751Z,9.70
2023-04-07T15:13:27.972Z,9.60
2023-04-07T15:15:55.947Z,9.70
2023-04-07T15:18:23.872Z,9.70
2023-04-07T15:20:52.144Z,9.70
2023-04-07T15:23:19.960Z,9.70
2023-04-07T15:25:51.269Z,9.70
2023-04-07T15:28:19.040Z,9.70
2023-04-07T15:30:48.167Z,9.70
2023-04-07T15:33:15.947Z,9.70
2023-04-07T15:35:44.151Z,9.80
2023-04-07T15:38:12.405Z,9.80
2023-04-07T15:40:41.930Z,9.80
2023-04-07T15:43:11.068Z,9.80
2023-04-07T15:45:42.681Z,9.90
2023-04-07T15:48:12.332Z,9.80
2023-04-07T15:50:40.285Z,9.80
2023-04-07T15:53:08.542Z,9.70
2023-04-07T15:55:37.547Z,9.70
2023-04-07T15:58:05.619Z,9.70
2023-04-07T16:00:35.575Z,9.70
2023-04-07T16:03:03.840Z,9.60
2023-04-07T16:05:33.251Z,9.60
2023-04-07T16:08:01.119Z,9.60
2023-04-07T16:10:28.998Z,9.60
2023-04-07T16:12:56.823Z,9.60
2023-04-07T16:15:38.781Z,9.60
2023-04-07T16:18:08.427Z,9.50
2023-04-07T16:20:38.001Z,9.50
2023-04-07T16:23:05.999Z,9.50
2023-04-07T16:25:33.832Z,9.40
2023-04-07T16:28:01.608Z,9.40
2023-04-07T16:30:29.455Z,9.40
2023-04-07T16:32:57.378Z,9.40
2023-04-07T16:35:25.284Z,9.40
2023-04-07T16:37:54.832Z,9.30
2023-04-07T16:40:22.694Z,9.30
2023-04-07T16:42:50.592Z,9.20
2023-04-07T16:45:18.628Z,9.20
2023-04-07T16:47:46.458Z,9.20
2023-04-07T16:50:14.352Z,9.10
2023-04-07T16:52:42.220Z,9.10
2023-04-07T16:55:11.476Z,9.00
2023-04-07T16:57:39.256Z,9.00
2023-04-07T17:00:08.372Z,8.90
2023-04-07T17:02:36.278Z,8.90
2023-04-07T17:05:04.392Z,8.90
2023-04-07T17:07:32.172Z,8.90
2023-04-07T17:10:00.293Z,8.90
2023-04-07T17:12:29.472Z,8.90
2023-04-07T17:14:57.240Z,8.80
2023-04-07T17:17:25.019Z,8.80
2023-04-07T17:19:52.827Z,8.80
2023-04-07T17:22:20.633Z,8.80
2023-04-07T17:24:48.387Z,8.80
2023-04-07T17:27:16.316Z,8.80
2023-04-07T17:29:45.477Z,8.80
2023-04-07T17:32:13.561Z,8.70
2023-04-07T17:34:41.522Z,8.70
2023-04-07T17:37:09.288Z,8.70
2023-04-07T17:39:37.262Z,8.70
2023-04-07T17:42:05.527Z,8.70
2023-04-07T17:44:34.094Z,8.70
2023-04-07T17:47:03.546Z,8.70
2023-04-07T17:49:31.596Z,8.70
2023-04-07T17:51:59.574Z,8.70
2023-04-07T17:54:28.239Z,8.70
2023-04-07T17:56:57.576Z,8.70
2023-04-07T17:59:25.579Z,8.70
2023-04-07T18:01:53.604Z,8.60
2023-04-07T18:04:22.977Z,8.60
2023-04-07T18:06:51.519Z,8.60
2023-04-07T18:09:19.303Z,8.60
2023-04-07T18:11:47.630Z,8.60
2023-04-07T18:14:16.490Z,8.60
2023-04-07T18:16:44.343Z,8.60
2023-04-07T18:19:12.148Z,8.60
2023-04-07T18:21:41.557Z,8.50
2023-04-07T18:24:09.338Z,8.50
2023-04-07T18:26:37.690Z,8.50
2023-04-07T18:29:09.483Z,8.50
2023-04-07T18:31:37.967Z,8.50
2023-04-07T18:34:06.223Z,8.50
2023-04-07T18:36:34.009Z,8.50
2023-04-07T18:39:04.050Z,8.50
2023-04-07T18:41:31.848Z,8.40
2023-04-07T18:43:59.842Z,8.40
2023-04-07T18:46:28.191Z,8.40
2023-04-07T18:48:56.008Z,8.40
2023-04-07T18:51:23.781Z,8.40
2023-04-07T18:53:51.737Z,8.40
2023-04-07T18:56:21.506Z,8.40
2023-04-07T18:58:51.126Z,8.40
2023-04-07T19:01:18.958Z,8.40
2023-04-07T19:03:47.669Z,8.40
2023-04-07T19:06:16.523Z,8.40
2023-04-07T19:08:44.515Z,8.40
2023-04-07T19:11:12.702Z,8.40
2023-04-07T19:13:42.325Z,8.40
2023-04-07T19:16:11.021Z,8.40
2023-04-07T19:18:39.085Z,8.30
2023-04-07T19:21:07.883Z,8.30
2023-04-07T19:23:36.018Z,8.30
2023-04-07T19:26:04.623Z,8.30
2023-04-07T19:28:33.766Z,8.30
2023-04-07T19:31:02.952Z,8.20
2023-04-07T19:33:30.713Z,8.20
2023-04-07T19:35:58.721Z,8.20
2023-04-07T19:38:26.515Z,8.20
2023-04-07T19:40:54.315Z,8.20
2023-04-07T19:43:22.114Z,8.30
2023-04-07T19:45:49.929Z,8.20
2023-04-07T19:48:19.111Z,8.20
2023-04-07T19:50:49.399Z,8.20
2023-04-07T19:53:17.840Z,8.20
2023-04-07T19:55:46.056Z,8.20
2023-04-07T19:58:16.964Z,8.20
2023-04-07T23:26:31.496Z,8.00
2023-04-07T23:29:00.680Z,8.00
2023-04-07T23:31:28.509Z,8.00
2023-04-07T23:33:56.908Z,8.00
2023-04-07T23:36:24.681Z,8.00
2023-04-07T23:38:52.442Z,8.00
2023-04-07T23:41:20.229Z,8.00
2023-04-07T23:43:48.027Z,8.00
2023-04-07T23:46:17.381Z,8.00
2023-04-07T23:48:45.379Z,8.00
2023-04-07T23:51:13.686Z,8.00
2023-04-07T23:53:41.595Z,8.00
2023-04-07T23:56:09.427Z,8.00
2023-04-07T23:58:37.278Z,8.00
